createdAt,value
2018-05-31T00:03:13.523Z,5.93
2018-05-31T00:07:11.640Z,5.80
2018-05-31T00:11:05.798Z,6.60
2018-05-31T00:14:58.982Z,6.47
2018-05-31T00:18:52.945Z,5.97
2018-05-31T00:22:46.847Z,5.93
2018-05-31T00:26:40.756Z,6.60
2018-05-31T00:30:34.043Z,7.07
2018-05-31T00:34:27.508Z,7.47
2018-05-31T00:38:21.144Z,6.07
2018-05-31T00:42:14.347Z,7.18
2018-05-31T00:46:07.610Z,7.05
2018-05-31T00:50:00.783Z,7.55
2018-05-31T00:53:54.108Z,7.80
2018-05-31T00:57:47.275Z,7.62
2018-05-31T01:01:42.120Z,7.05
2018-05-31T01:05:35.375Z,8.07
2018-05-31T01:09:28.584Z,7.75
2018-05-31T01:13:22.957Z,7.53
2018-05-31T01:17:16.242Z,7.50
2018-05-31T01:21:09.343Z,6.90
2018-05-31T01:25:02.555Z,8.27
2018-05-31T01:28:56.060Z,7.60
2018-05-31T01:32:49.200Z,7.78
2018-05-31T01:36:43.085Z,7.03
2018-05-31T01:40:37.025Z,7.55
2018-05-31T01:44:30.240Z,7.20
2018-05-31T01:48:23.436Z,7.85
2018-05-31T01:52:16.572Z,7.20
2018-05-31T01:56:10.523Z,7.65
2018-05-31T02:00:03.713Z,7.95
2018-05-31T02:03:58.199Z,7.77
2018-05-31T02:07:51.338Z,7.82
2018-05-31T02:11:44.520Z,8.18
2018-05-31T02:15:37.763Z,7.60
2018-05-31T02:19:30.865Z,7.60
2018-05-31T02:23:23.990Z,6.97
2018-05-31T02:27:17.262Z,7.80
2018-05-31T02:31:10.568Z,8.40
2018-05-31T02:35:05.150Z,8.32
2018-05-31T02:38:59.095Z,8.30
2018-05-31T02:42:52.555Z,7.20
2018-05-31T02:46:46.041Z,7.03
2018-05-31T02:50:39.443Z,7.65
2018-05-31T02:54:32.767Z,7.47
2018-05-31T02:58:26.042Z,6.87
2018-05-31T03:02:20.885Z,9.30
2018-05-31T03:06:14.025Z,9.57
2018-05-31T03:10:07.230Z,9.20
2018-05-31T03:14:01.911Z,9.70
2018-05-31T03:17:55.306Z,8.73
2018-05-31T03:21:48.515Z,9.47
2018-05-31T03:25:41.684Z,9.03
2018-05-31T03:29:35.077Z,9.60
2018-05-31T03:33:28.666Z,9.20
2018-05-31T03:37:21.812Z,9.50
2018-05-31T03:41:14.989Z,10.17
2018-05-31T03:45:08.193Z,7.93
2018-05-31T03:49:01.313Z,9.43
2018-05-31T03:52:54.799Z,9.07
2018-05-31T03:56:48.303Z,11.32
2018-05-31T04:00:41.509Z,8.97
2018-05-31T04:04:34.720Z,8.10
2018-05-31T04:08:27.861Z,8.68
2018-05-31T04:12:21.027Z,8.60
2018-05-31T04:16:14.747Z,7.50
2018-05-31T04:20:09.105Z,7.10
2018-05-31T04:24:03.090Z,8.00
2018-05-31T04:27:56.284Z,7.07
2018-05-31T04:31:50.264Z,7.43
2018-05-31T04:35:44.127Z,7.95
2018-05-31T04:39:37.273Z,7.67
2018-05-31T04:43:30.762Z,7.73
2018-05-31T04:47:24.703Z,7.22
2018-05-31T04:51:17.846Z,7.28
2018-05-31T04:55:12.108Z,7.33
2018-05-31T04:59:07.383Z,7.57
2018-05-31T05:03:00.545Z,8.20
2018-05-31T05:06:53.721Z,8.70
2018-05-31T05:10:46.846Z,8.38
2018-05-31T05:14:40.934Z,8.48
2018-05-31T05:18:34.392Z,8.30
2018-05-31T05:22:27.524Z,8.02
2018-05-31T05:26:20.779Z,8.27
2018-05-31T05:30:14.040Z,8.48
2018-05-31T05:34:07.244Z,8.07
2018-05-31T05:38:01.204Z,7.53
2018-05-31T05:41:55.162Z,7.87
2018-05-31T05:45:49.745Z,7.85
2018-05-31T05:49:42.899Z,7.70
2018-05-31T05:53:36.054Z,7.87
2018-05-31T05:57:30.244Z,7.10
2018-05-31T06:01:23.428Z,7.20
2018-05-31T06:05:16.539Z,6.77
2018-05-31T06:09:10.818Z,6.90
2018-05-31T06:13:03.929Z,5.87
2018-05-31T06:16:57.161Z,6.43
2018-05-31T06:20:51.172Z,8.30
2018-05-31T06:24:46.327Z,5.85
2018-05-31T06:28:39.661Z,5.90
2018-05-31T06:32:33.555Z,5.53
2018-05-31T06:36:27.051Z,5.80
2018-05-31T06:40:20.217Z,6.27
2018-05-31T06:44:14.170Z,5.63
2018-05-31T06:48:08.112Z,5.30
2018-05-31T06:52:01.509Z,6.23
2018-05-31T06:55:55.645Z,5.90
2018-05-31T06:59:48.875Z,5.37
2018-05-31T07:03:41.807Z,5.90
2018-05-31T07:07:34.937Z,5.67
2018-05-31T07:11:29.464Z,5.45
2018-05-31T07:15:22.680Z,6.00
2018-05-31T07:19:16.012Z,5.72
2018-05-31T07:23:09.126Z,5.77
2018-05-31T07:27:02.423Z,5.93
2018-05-31T07:30:55.664Z,5.68
2018-05-31T07:34:48.863Z,4.90
2018-05-31T07:38:42.073Z,4.78
2018-05-31T07:42:35.300Z,4.20
2018-05-31T07:46:28.471Z,3.87
2018-05-31T07:50:22.674Z,3.83
2018-05-31T07:54:16.632Z,3.27
2018-05-31T07:58:09.827Z,3.60
2018-05-31T08:02:04.017Z,3.77
2018-05-31T08:05:57.857Z,5.33
2018-05-31T08:09:51.082Z,4.22
2018-05-31T08:13:45.305Z,3.53
2018-05-31T08:17:38.853Z,3.60
2018-05-31T08:21:31.992Z,3.30
2018-05-31T08:25:25.292Z,4.83
2018-05-31T08:29:18.811Z,4.83
2018-05-31T08:33:12.546Z,5.87
2018-05-31T08:37:05.715Z,4.32
2018-05-31T08:40:58.896Z,4.70
2018-05-31T08:44:52.123Z,5.20
2018-05-31T08:48:45.272Z,4.70
2018-05-31T08:52:39.553Z,3.90
2018-05-31T08:56:33.548Z,4.83
2018-05-31T09:00:27.046Z,5.80
2018-05-31T09:04:21.039Z,5.22
2018-05-31T09:08:14.984Z,4.33
2018-05-31T09:12:08.896Z,4.20
2018-05-31T09:16:02.126Z,4.20
2018-05-31T09:19:56.231Z,4.53
2018-05-31T09:23:49.759Z,5.20
2018-05-31T09:27:48.840Z,4.20
2018-05-31T09:31:47.681Z,4.37
2018-05-31T09:35:41.320Z,4.00
2018-05-31T09:39:34.510Z,4.93
2018-05-31T09:43:27.676Z,5.78
2018-05-31T09:47:21.566Z,5.93
2018-05-31T09:51:14.890Z,5.40
2018-05-31T09:55:10.799Z,4.13
2018-05-31T09:59:07.466Z,4.80
2018-05-31T10:03:00.697Z,4.62
2018-05-31T10:06:54.758Z,5.43
2018-05-31T10:10:48.462Z,3.67
2018-05-31T10:14:42.455Z,4.10
2018-05-31T10:18:36.395Z,4.90
2018-05-31T10:22:29.501Z,4.28
2018-05-31T10:26:26.159Z,4.10
2018-05-31T10:30:19.300Z,4.53
2018-05-31T10:34:13.331Z,4.28
2018-05-31T10:38:06.445Z,5.28
2018-05-31T10:42:00.643Z,5.73
2018-05-31T10:45:54.293Z,5.67
2018-05-31T10:49:48.032Z,5.50
2018-05-31T10:53:41.282Z,5.93
2018-05-31T10:57:34.477Z,6.60
2018-05-31T11:01:27.609Z,5.50
2018-05-31T11:05:23.515Z,6.43
2018-05-31T11:09:17.699Z,6.43
2018-05-31T11:13:10.879Z,5.77
2018-05-31T11:17:04.177Z,5.57
2018-05-31T11:20:57.316Z,5.00
2018-05-31T11:24:51.359Z,6.80
2018-05-31T11:28:44.627Z,5.68
2018-05-31T11:32:38.760Z,4.90
2018-05-31T11:36:32.767Z,5.10
2018-05-31T11:40:26.333Z,5.63
2018-05-31T11:44:20.398Z,5.90
2018-05-31T11:48:14.443Z,5.10
2018-05-31T11:52:07.592Z,6.05
2018-05-31T11:56:00.845Z,6.95
2018-05-31T11:59:54.020Z,6.60
2018-05-31T12:03:47.711Z,5.97
2018-05-31T12:07:40.987Z,6.10
2018-05-31T12:11:34.633Z,6.47
2018-05-31T12:15:29.118Z,5.87
2018-05-31T12:19:22.844Z,6.03
2018-05-31T12:23:16.217Z,6.40
2018-05-31T12:27:09.424Z,6.03
2018-05-31T12:31:04.163Z,7.27
2018-05-31T12:34:57.379Z,6.25
2018-05-31T12:38:51.302Z,6.77
2018-05-31T12:42:44.529Z,6.47
2018-05-31T12:46:38.678Z,6.17
2018-05-31T12:50:32.859Z,6.03
2018-05-31T12:54:26.832Z,6.80
2018-05-31T12:58:19.979Z,6.60
2018-05-31T13:02:13.527Z,6.47
2018-05-31T13:06:06.816Z,5.90
2018-05-31T13:10:00.247Z,7.22
2018-05-31T13:13:55.031Z,6.68
2018-05-31T13:17:48.236Z,8.40
2018-05-31T13:21:43.591Z,6.97
2018-05-31T13:25:36.809Z,6.13
2018-05-31T13:29:31.328Z,7.78
2018-05-31T13:33:24.972Z,8.65
2018-05-31T13:37:18.913Z,7.93
2018-05-31T13:41:12.520Z,7.03
2018-05-31T13:45:05.709Z,6.57
2018-05-31T13:48:59.246Z,5.62
2018-05-31T13:52:52.789Z,5.03
2018-05-31T13:56:46.134Z,6.73
2018-05-31T14:00:39.360Z,6.10
2018-05-31T14:04:32.655Z,4.80
2018-05-31T14:08:25.659Z,5.07
2018-05-31T14:12:18.836Z,6.83
2018-05-31T14:16:12.893Z,5.37
2018-05-31T14:20:06.797Z,5.18
2018-05-31T14:24:00.041Z,5.07
2018-05-31T14:27:53.199Z,5.77
2018-05-31T14:31:46.969Z,5.60
2018-05-31T14:35:41.308Z,7.10
2018-05-31T14:39:34.840Z,5.85
2018-05-31T14:43:29.071Z,5.78
2018-05-31T14:47:22.262Z,5.70
2018-05-31T14:51:17.615Z,6.72
2018-05-31T14:55:10.896Z,9.10
2018-05-31T14:59:04.031Z,7.05
2018-05-31T15:02:57.237Z,5.37
2018-05-31T15:06:50.727Z,7.72
2018-05-31T15:10:43.937Z,6.30
2018-05-31T15:14:37.381Z,11.93
2018-05-31T15:18:30.637Z,11.98
2018-05-31T15:22:23.617Z,8.00
2018-05-31T15:26:16.840Z,6.43
2018-05-31T15:30:10.072Z,6.33
2018-05-31T15:34:03.765Z,6.80
2018-05-31T15:37:57.075Z,6.03
2018-05-31T15:41:50.329Z,7.10
2018-05-31T15:45:44.336Z,6.60
2018-05-31T15:49:39.429Z,6.85
2018-05-31T15:53:32.862Z,8.83
2018-05-31T15:57:26.874Z,9.27
2018-05-31T16:01:20.018Z,9.52
2018-05-31T16:05:14.504Z,10.87
2018-05-31T16:09:08.292Z,11.33
2018-05-31T16:13:01.870Z,10.10
2018-05-31T16:16:56.655Z,10.50
2018-05-31T16:20:49.977Z,8.77
2018-05-31T16:24:43.755Z,8.77
2018-05-31T16:28:37.219Z,9.10
2018-05-31T16:32:30.447Z,9.90
2018-05-31T16:36:24.739Z,9.80
2018-05-31T16:40:18.701Z,8.47
2018-05-31T16:44:11.799Z,10.20
2018-05-31T16:48:06.491Z,10.30
2018-05-31T16:52:00.548Z,11.40
2018-05-31T16:55:54.579Z,10.97
2018-05-31T16:59:47.952Z,10.13
2018-05-31T17:03:41.691Z,11.87
2018-05-31T17:07:35.814Z,10.25
2018-05-31T17:11:28.997Z,11.77
2018-05-31T17:15:22.787Z,11.27
2018-05-31T17:19:15.991Z,10.73
2018-05-31T17:23:10.241Z,10.83
2018-05-31T17:27:06.383Z,10.10
2018-05-31T17:30:59.632Z,8.30
2018-05-31T17:34:53.162Z,7.23
2018-05-31T17:38:47.107Z,7.80
2018-05-31T17:42:41.374Z,7.23
2018-05-31T17:46:34.543Z,7.73
2018-05-31T17:50:28.612Z,8.25
2018-05-31T17:54:22.878Z,9.57
2018-05-31T17:58:16.077Z,10.25
2018-05-31T18:02:10.155Z,9.52
2018-05-31T18:06:04.287Z,10.80
2018-05-31T18:09:57.515Z,12.57
2018-05-31T18:13:50.915Z,10.40
2018-05-31T18:17:44.363Z,10.83
2018-05-31T18:21:37.538Z,10.60
2018-05-31T18:25:31.377Z,12.40
2018-05-31T18:29:25.478Z,13.20
2018-05-31T18:33:18.981Z,11.43
2018-05-31T18:37:12.896Z,12.10
2018-05-31T18:41:06.772Z,12.33
2018-05-31T18:45:02.742Z,12.53
2018-05-31T18:48:58.796Z,13.68
2018-05-31T18:52:52.808Z,13.90
2018-05-31T18:56:48.888Z,15.90
2018-05-31T19:00:42.925Z,14.10
2018-05-31T19:04:40.395Z,15.52
2018-05-31T19:08:36.725Z,15.75
2018-05-31T19:12:39.026Z,12.30
2018-05-31T19:16:34.144Z,9.50
2018-05-31T19:20:28.028Z,8.68
2018-05-31T19:24:26.887Z,7.78
2018-05-31T19:28:20.104Z,7.97
2018-05-31T19:32:13.311Z,6.87
2018-05-31T19:36:12.104Z,7.00
2018-05-31T19:40:08.650Z,7.30
2018-05-31T19:44:08.158Z,6.65
2018-05-31T19:48:01.949Z,6.80
2018-05-31T19:52:02.413Z,6.37
2018-05-31T19:55:55.591Z,7.03
2018-05-31T19:59:56.912Z,7.88
2018-05-31T20:03:52.041Z,8.07
2018-05-31T20:07:45.208Z,7.83
2018-05-31T20:11:38.323Z,7.07
2018-05-31T20:15:32.408Z,7.57
2018-05-31T20:19:26.297Z,7.95
2018-05-31T20:23:20.271Z,7.83
2018-05-31T20:27:14.150Z,7.03
2018-05-31T20:31:08.138Z,8.18
2018-05-31T20:35:01.308Z,9.75
2018-05-31T20:38:56.623Z,7.35
2018-05-31T20:42:49.789Z,7.72
2018-05-31T20:46:43.123Z,8.38
2018-05-31T20:50:37.540Z,8.68
2018-05-31T20:54:31.634Z,8.20
2018-05-31T20:58:27.944Z,7.85
2018-05-31T21:02:21.227Z,8.47
2018-05-31T21:06:14.631Z,8.57
2018-05-31T21:10:08.243Z,7.77
2018-05-31T21:14:02.945Z,8.73
2018-05-31T21:17:56.286Z,8.48
2018-05-31T21:21:49.460Z,8.80
2018-05-31T21:25:42.694Z,10.07
2018-05-31T21:29:41.831Z,10.70
2018-05-31T21:33:35.159Z,10.05
2018-05-31T21:37:29.590Z,9.77
2018-05-31T21:41:22.715Z,10.97
2018-05-31T21:45:16.691Z,9.52
2018-05-31T21:49:10.083Z,10.05
2018-05-31T21:53:04.420Z,11.12
2018-05-31T21:56:57.603Z,11.10
2018-05-31T22:00:55.974Z,10.27
2018-05-31T22:04:49.447Z,11.15
2018-05-31T22:08:42.791Z,9.38
2018-05-31T22:12:35.942Z,12.60
2018-05-31T22:16:29.415Z,14.63
2018-05-31T22:20:22.785Z,13.85
2018-05-31T22:24:16.125Z,13.40
2018-05-31T22:28:09.701Z,12.70
2018-05-31T22:32:05.568Z,8.77
2018-05-31T22:36:00.014Z,12.20
2018-05-31T22:39:53.182Z,11.15
2018-05-31T22:43:46.359Z,12.50
2018-05-31T22:47:39.489Z,12.27
2018-05-31T22:51:32.997Z,12.00
2018-05-31T22:55:26.173Z,12.30
2018-05-31T22:59:19.389Z,12.77
2018-05-31T23:03:12.521Z,11.57
2018-05-31T23:07:05.888Z,9.57
2018-05-31T23:10:59.132Z,11.32
2018-05-31T23:14:53.013Z,12.27
2018-05-31T23:18:46.932Z,10.17
2018-05-31T23:22:40.101Z,11.23
2018-05-31T23:26:33.256Z,11.73
2018-05-31T23:30:26.937Z,11.73
2018-05-31T23:34:20.118Z,11.73
2018-05-31T23:38:13.280Z,11.60
2018-05-31T23:42:06.470Z,11.50
2018-05-31T23:45:59.884Z,13.65
2018-05-31T23:49:54.073Z,14.43
2018-05-31T23:53:47.210Z,14.40
2018-05-31T23:57:40.639Z,13.73
